Terminal Aerodrome Forecast
Issued by NWS Cleveland, OH

Home | Current Version | Previous Version | Graphics & Text | Print | Product List | Glossary On
Versions: 1 2 3 4 5 6 7 8 9 10 11 12 13 14 15 16 17 18
000
FTUS41 KCLE 281700
TAFMFD
TAF
KMFD 281736Z 2818/2918 33015G22KT P6SM VCSH SCT028 BKN040
      TEMPO 2818/2820 BKN028
     FM290100 32005KT P6SM SCT030
     FM291500 27008KT P6SM BKN035=

USA.gov is the U.S. government's official web portal to all federal, state and local government web resources and services.